sensor_id;sensor_type;location;lat;lon;timestamp;pressure;altitude;pressure_sealevel;temperature;humidity
14067;BME280;7108;42.684;23.350;2022-12-07T00:02:23;95336.25;;;7.12;100.00
14067;BME280;7108;42.684;23.350;2022-12-07T00:04:49;95370.13;;;7.28;100.00
14067;BME280;7108;42.684;23.350;2022-12-07T00:07:14;95327.44;;;7.11;100.00
14067;BME280;7108;42.684;23.350;2022-12-07T00:09:46;95309.13;;;7.01;100.00
14067;BME280;7108;42.684;23.350;2022-12-07T00:12:11;95318.16;;;7.09;100.00
14067;BME280;7108;42.684;23.350;2022-12-07T00:14:37;95312.34;;;7.07;100.00
14067;BME280;7108;42.684;23.350;2022-12-07T00:17:02;95316.25;;;7.09;100.00
14067;BME280;7108;42.684;23.350;2022-12-07T00:19:27;95335.81;;;7.21;100.00
14067;BME280;7108;42.684;23.350;2022-12-07T00:21:53;95326.00;;;7.14;100.00
14067;BME280;7108;42.684;23.350;2022-12-07T00:24:18;95370.00;;;7.36;100.00
14067;BME280;7108;42.684;23.350;2022-12-07T00:26:44;95319.31;;;7.19;100.00
14067;BME280;7108;42.684;23.350;2022-12-07T00:29:19;95295.03;;;7.04;100.00
14067;BME280;7108;42.684;23.350;2022-12-07T00:31:45;95342.84;;;7.14;100.00
14067;BME280;7108;42.684;23.350;2022-12-07T00:34:16;95373.34;;;7.33;100.00
14067;BME280;7108;42.684;23.350;2022-12-07T00:36:42;95374.47;;;7.32;100.00
14067;BME280;7108;42.684;23.350;2022-12-07T00:39:08;95313.69;;;7.01;100.00
14067;BME280;7108;42.684;23.350;2022-12-07T00:41:34;95340.28;;;7.17;100.00
14067;BME280;7108;42.684;23.350;2022-12-07T00:43:59;95352.91;;;7.29;100.00
14067;BME280;7108;42.684;23.350;2022-12-07T00:46:25;95354.03;;;7.28;100.00
14067;BME280;7108;42.684;23.350;2022-12-07T00:48:51;95347.44;;;7.25;100.00
14067;BME280;7108;42.684;23.350;2022-12-07T00:51:19;95331.91;;;7.31;100.00
14067;BME280;7108;42.684;23.350;2022-12-07T00:53:45;95337.97;;;7.28;100.00
14067;BME280;7108;42.684;23.350;2022-12-07T00:58:44;95329.91;;;7.16;100.00
14067;BME280;7108;42.684;23.350;2022-12-07T01:01:10;95349.56;;;7.32;100.00
14067;BME280;7108;42.684;23.350;2022-12-07T01:03:36;95322.63;;;7.16;100.00
14067;BME280;7108;42.684;23.350;2022-12-07T01:06:03;95338.59;;;7.13;100.00
14067;BME280;7108;42.684;23.350;2022-12-07T01:08:30;95344.09;;;7.28;100.00
14067;BME280;7108;42.684;23.350;2022-12-07T01:11:06;95332.47;;;7.24;100.00
14067;BME280;7108;42.684;23.350;2022-12-07T01:13:34;95336.16;;;7.20;100.00
14067;BME280;7108;42.684;23.350;2022-12-07T01:16:01;95319.19;;;7.16;100.00
14067;BME280;7108;42.684;23.350;2022-12-07T01:18:28;95348.75;;;7.31;100.00
14067;BME280;7108;42.684;23.350;2022-12-07T01:21:02;95308.00;;;7.14;100.00
14067;BME280;7108;42.684;23.350;2022-12-07T01:23:29;95359.19;;;7.33;100.00
14067;BME280;7108;42.684;23.350;2022-12-07T01:25:59;95332.00;;;7.11;100.00
14067;BME280;7108;42.684;23.350;2022-12-07T01:28:25;95321.19;;;7.19;100.00
14067;BME280;7108;42.684;23.350;2022-12-07T01:31:02;95318.50;;;7.19;100.00
14067;BME280;7108;42.684;23.350;2022-12-07T01:33:30;95316.28;;;7.21;100.00
14067;BME280;7108;42.684;23.350;2022-12-07T01:36:22;95320.19;;;7.23;100.00
14067;BME280;7108;42.684;23.350;2022-12-07T01:38:49;95329.78;;;7.24;100.00
14067;BME280;7108;42.684;23.350;2022-12-07T01:41:19;95334.25;;;7.32;100.00
14067;BME280;7108;42.684;23.350;2022-12-07T01:44:09;95325.09;;;7.33;100.00
14067;BME280;7108;42.684;23.350;2022-12-07T01:46:34;95318.16;;;7.09;100.00
14067;BME280;7108;42.684;23.350;2022-12-07T01:49:01;95298.53;;;7.05;100.00
14067;BME280;7108;42.684;23.350;2022-12-07T01:51:28;95298.84;;;7.15;100.00
14067;BME280;7108;42.684;23.350;2022-12-07T01:53:53;95305.44;;;7.17;100.00
14067;BME280;7108;42.684;23.350;2022-12-07T01:56:22;95311.78;;;7.13;100.00
14067;BME280;7108;42.684;23.350;2022-12-07T01:58:49;95311.69;;;7.21;100.00
14067;BME280;7108;42.684;23.350;2022-12-07T02:01:14;95323.34;;;7.25;100.00
14067;BME280;7108;42.684;23.350;2022-12-07T02:03:42;95277.88;;;7.05;100.00
14067;BME280;7108;42.684;23.350;2022-12-07T02:06:10;95309.47;;;7.23;100.00
14067;BME280;7108;42.684;23.350;2022-12-07T02:08:37;95301.91;;;7.25;100.00
14067;BME280;7108;42.684;23.350;2022-12-07T02:11:04;95293.16;;;7.16;100.00
14067;BME280;7108;42.684;23.350;2022-12-07T02:13:33;95317.72;;;7.18;100.00
14067;BME280;7108;42.684;23.350;2022-12-07T02:29:58;95304.88;;;7.24;100.00
14067;BME280;7108;42.684;23.350;2022-12-07T02:40:48;95290.16;;;7.18;100.00
14067;BME280;7108;42.684;23.350;2022-12-07T02:43:29;95292.16;;;7.09;100.00
14067;BME280;7108;42.684;23.350;2022-12-07T02:46:17;95292.81;;;7.06;100.00
14067;BME280;7108;42.684;23.350;2022-12-07T02:48:46;95295.84;;;7.05;100.00
14067;BME280;7108;42.684;23.350;2022-12-07T02:51:12;95268.47;;;6.87;100.00
14067;BME280;7108;42.684;23.350;2022-12-07T02:53:40;95291.81;;;7.11;100.00
14067;BME280;7108;42.684;23.350;2022-12-07T03:07:05;95295.28;;;7.11;100.00
14067;BME280;7108;42.684;23.350;2022-12-07T03:10:01;95258.97;;;6.90;100.00
14067;BME280;7108;42.684;23.350;2022-12-07T03:15:22;95252.19;;;6.80;100.00
14067;BME280;7108;42.684;23.350;2022-12-07T03:17:52;95254.41;;;6.78;100.00
14067;BME280;7108;42.684;23.350;2022-12-07T03:20:21;95274.84;;;6.95;100.00
14067;BME280;7108;42.684;23.350;2022-12-07T03:22:49;95269.47;;;6.83;100.00
14067;BME280;7108;42.684;23.350;2022-12-07T03:25:17;95265.22;;;6.82;100.00
14067;BME280;7108;42.684;23.350;2022-12-07T03:30:19;95280.41;;;6.90;100.00
14067;BME280;7108;42.684;23.350;2022-12-07T03:33:03;95276.41;;;6.84;100.00
14067;BME280;7108;42.684;23.350;2022-12-07T03:35:39;95228.78;;;6.45;100.00
14067;BME280;7108;42.684;23.350;2022-12-07T03:40:55;95272.09;;;6.59;100.00
14067;BME280;7108;42.684;23.350;2022-12-07T03:43:24;95278.91;;;6.68;100.00
14067;BME280;7108;42.684;23.350;2022-12-07T03:48:39;95278.59;;;6.70;100.00
14067;BME280;7108;42.684;23.350;2022-12-07T03:51:28;95281.59;;;6.68;100.00
14067;BME280;7108;42.684;23.350;2022-12-07T03:54:20;95276.97;;;6.45;100.00
14067;BME280;7108;42.684;23.350;2022-12-07T03:56:49;95275.78;;;6.54;100.00
14067;BME280;7108;42.684;23.350;2022-12-07T03:59:17;95264.41;;;6.57;100.00
14067;BME280;7108;42.684;23.350;2022-12-07T04:01:44;95267.06;;;6.57;100.00
14067;BME280;7108;42.684;23.350;2022-12-07T04:04:09;95258.16;;;6.53;100.00
14067;BME280;7108;42.684;23.350;2022-12-07T04:06:35;95269.19;;;6.64;100.00
14067;BME280;7108;42.684;23.350;2022-12-07T04:09:00;95233.13;;;6.38;100.00
14067;BME280;7108;42.684;23.350;2022-12-07T04:11:26;95262.72;;;6.65;100.00
14067;BME280;7108;42.684;23.350;2022-12-07T04:13:51;95228.19;;;6.28;100.00
14067;BME280;7108;42.684;23.350;2022-12-07T04:16:35;95257.88;;;6.47;100.00
14067;BME280;7108;42.684;23.350;2022-12-07T04:19:00;95257.03;;;6.66;100.00
14067;BME280;7108;42.684;23.350;2022-12-07T04:21:26;95224.53;;;6.44;100.00
14067;BME280;7108;42.684;23.350;2022-12-07T04:23:51;95227.56;;;6.43;100.00
14067;BME280;7108;42.684;23.350;2022-12-07T04:26:17;95257.25;;;6.61;100.00
14067;BME280;7108;42.684;23.350;2022-12-07T04:28:42;95226.41;;;6.32;100.00
14067;BME280;7108;42.684;23.350;2022-12-07T04:31:08;95251.91;;;6.50;100.00
14067;BME280;7108;42.684;23.350;2022-12-07T04:33:33;95247.19;;;6.47;100.00
14067;BME280;7108;42.684;23.350;2022-12-07T04:36:00;95244.63;;;6.50;100.00
14067;BME280;7108;42.684;23.350;2022-12-07T04:38:25;95251.91;;;6.61;100.00
14067;BME280;7108;42.684;23.350;2022-12-07T04:40:51;95268.97;;;6.69;100.00
14067;BME280;7108;42.684;23.350;2022-12-07T04:43:27;95224.63;;;6.36;100.00
14067;BME280;7108;42.684;23.350;2022-12-07T04:45:52;95208.31;;;6.17;100.00
14067;BME280;7108;42.684;23.350;2022-12-07T04:48:18;95285.16;;;6.60;100.00
14067;BME280;7108;42.684;23.350;2022-12-07T04:50:43;95254.31;;;6.43;100.00
14067;BME280;7108;42.684;23.350;2022-12-07T04:53:08;95266.72;;;6.47;100.00
14067;BME280;7108;42.684;23.350;2022-12-07T04:55:34;95276.22;;;6.56;100.00
14067;BME280;7108;42.684;23.350;2022-12-07T04:57:59;95250.28;;;6.37;100.00
14067;BME280;7108;42.684;23.350;2022-12-07T05:00:24;95241.69;;;6.31;100.00
14067;BME280;7108;42.684;23.350;2022-12-07T05:02:50;95281.47;;;6.53;100.00
14067;BME280;7108;42.684;23.350;2022-12-07T05:05:15;95278.06;;;6.44;100.00
14067;BME280;7108;42.684;23.350;2022-12-07T05:07:41;95270.72;;;6.41;100.00
14067;BME280;7108;42.684;23.350;2022-12-07T05:10:06;95276.19;;;6.45;100.00
14067;BME280;7108;42.684;23.350;2022-12-07T05:12:32;95286.44;;;6.43;100.00
14067;BME280;7108;42.684;23.350;2022-12-07T05:14:57;95288.66;;;6.41;100.00
14067;BME280;7108;42.684;23.350;2022-12-07T05:17:23;95246.63;;;6.09;100.00
14067;BME280;7108;42.684;23.350;2022-12-07T05:19:48;95279.38;;;6.38;100.00
14067;BME280;7108;42.684;23.350;2022-12-07T05:22:14;95254.25;;;6.19;100.00
14067;BME280;7108;42.684;23.350;2022-12-07T05:24:40;95254.88;;;6.04;100.00
14067;BME280;7108;42.684;23.350;2022-12-07T05:27:05;95285.03;;;6.25;100.00
14067;BME280;7108;42.684;23.350;2022-12-07T05:29:37;95285.94;;;6.29;100.00
14067;BME280;7108;42.684;23.350;2022-12-07T05:32:05;95277.69;;;6.01;100.00
14067;BME280;7108;42.684;23.350;2022-12-07T05:34:31;95284.66;;;6.14;100.00
14067;BME280;7108;42.684;23.350;2022-12-07T05:36:56;95250.97;;;6.01;100.00
14067;BME280;7108;42.684;23.350;2022-12-07T05:39:22;95289.25;;;6.26;100.00
14067;BME280;7108;42.684;23.350;2022-12-07T05:41:47;95262.78;;;6.12;100.00
14067;BME280;7108;42.684;23.350;2022-12-07T05:44:31;95262.16;;;6.15;100.00
14067;BME280;7108;42.684;23.350;2022-12-07T05:46:56;95278.81;;;6.33;100.00
14067;BME280;7108;42.684;23.350;2022-12-07T05:49:22;95248.50;;;6.08;100.00
14067;BME280;7108;42.684;23.350;2022-12-07T05:51:50;95245.41;;;6.06;100.00
14067;BME280;7108;42.684;23.350;2022-12-07T05:54:15;95201.66;;;5.90;100.00
14067;BME280;7108;42.684;23.350;2022-12-07T05:56:41;95258.59;;;6.23;100.00
14067;BME280;7108;42.684;23.350;2022-12-07T05:59:08;95201.66;;;5.90;100.00
14067;BME280;7108;42.684;23.350;2022-12-07T06:01:53;95263.75;;;6.28;100.00
14067;BME280;7108;42.684;23.350;2022-12-07T06:04:20;95279.59;;;6.33;100.00
14067;BME280;7108;42.684;23.350;2022-12-07T06:06:46;95276.69;;;6.26;100.00
14067;BME280;7108;42.684;23.350;2022-12-07T06:09:12;95229.56;;;6.01;100.00
14067;BME280;7108;42.684;23.350;2022-12-07T06:11:40;95273.06;;;6.43;100.00
14067;BME280;7108;42.684;23.350;2022-12-07T06:14:25;95226.69;;;6.18;100.00
14067;BME280;7108;42.684;23.350;2022-12-07T06:16:50;95244.50;;;6.35;100.00
14067;BME280;7108;42.684;23.350;2022-12-07T06:19:16;95273.50;;;6.45;100.00
14067;BME280;7108;42.684;23.350;2022-12-07T06:21:41;95280.44;;;6.57;100.00
14067;BME280;7108;42.684;23.350;2022-12-07T06:24:07;95255.44;;;6.42;100.00
14067;BME280;7108;42.684;23.350;2022-12-07T06:26:32;95205.59;;;6.05;100.00
14067;BME280;7108;42.684;23.350;2022-12-07T06:28:58;95265.47;;;6.45;100.00
14067;BME280;7108;42.684;23.350;2022-12-07T06:31:23;95243.06;;;6.37;100.00
14067;BME280;7108;42.684;23.350;2022-12-07T06:33:49;95285.38;;;6.67;100.00
14067;BME280;7108;42.684;23.350;2022-12-07T06:36:14;95278.66;;;6.61;100.00
14067;BME280;7108;42.684;23.350;2022-12-07T06:38:40;95247.09;;;6.55;100.00
14067;BME280;7108;42.684;23.350;2022-12-07T06:41:05;95276.16;;;6.77;100.00
14067;BME280;7108;42.684;23.350;2022-12-07T06:43:32;95268.13;;;6.77;100.00
14067;BME280;7108;42.684;23.350;2022-12-07T06:45:57;95279.03;;;6.72;100.00
14067;BME280;7108;42.684;23.350;2022-12-07T06:48:23;95279.50;;;6.74;100.00
14067;BME280;7108;42.684;23.350;2022-12-07T06:50:49;95295.91;;;6.84;100.00
14067;BME280;7108;42.684;23.350;2022-12-07T06:53:14;95299.16;;;6.90;100.00
14067;BME280;7108;42.684;23.350;2022-12-07T06:55:40;95257.63;;;6.72;100.00
14067;BME280;7108;42.684;23.350;2022-12-07T06:58:05;95278.28;;;6.83;100.00
14067;BME280;7108;42.684;23.350;2022-12-07T07:00:30;95297.59;;;7.01;100.00
14067;BME280;7108;42.684;23.350;2022-12-07T07:02:56;95291.81;;;6.99;100.00
14067;BME280;7108;42.684;23.350;2022-12-07T07:05:21;95294.50;;;6.99;100.00
14067;BME280;7108;42.684;23.350;2022-12-07T07:07:48;95299.53;;;7.12;100.00
14067;BME280;7108;42.684;23.350;2022-12-07T07:10:13;95259.91;;;6.94;100.00
14067;BME280;7108;42.684;23.350;2022-12-07T07:12:39;95299.63;;;7.15;100.00
14067;BME280;7108;42.684;23.350;2022-12-07T07:15:05;95284.34;;;7.16;100.00
14067;BME280;7108;42.684;23.350;2022-12-07T07:17:30;95299.31;;;7.29;100.00
14067;BME280;7108;42.684;23.350;2022-12-07T07:19:55;95285.78;;;7.37;100.00
14067;BME280;7108;42.684;23.350;2022-12-07T07:22:21;95278.97;;;7.40;100.00
14067;BME280;7108;42.684;23.350;2022-12-07T07:24:46;95260.13;;;7.24;100.00
14067;BME280;7108;42.684;23.350;2022-12-07T07:27:12;95284.91;;;7.33;100.00
14067;BME280;7108;42.684;23.350;2022-12-07T07:29:37;95265.91;;;7.26;100.00
14067;BME280;7108;42.684;23.350;2022-12-07T07:32:02;95297.75;;;7.52;100.00
14067;BME280;7108;42.684;23.350;2022-12-07T07:34:28;95298.63;;;7.56;100.00
14067;BME280;7108;42.684;23.350;2022-12-07T07:36:53;95298.22;;;7.54;100.00
14067;BME280;7108;42.684;23.350;2022-12-07T07:39:19;95286.34;;;7.55;100.00
14067;BME280;7108;42.684;23.350;2022-12-07T07:41:44;95306.69;;;7.68;100.00
14067;BME280;7108;42.684;23.350;2022-12-07T07:44:09;95307.03;;;7.66;100.00
14067;BME280;7108;42.684;23.350;2022-12-07T07:46:35;95300.19;;;7.69;100.00
14067;BME280;7108;42.684;23.350;2022-12-07T07:49:00;95299.75;;;7.67;100.00
14067;BME280;7108;42.684;23.350;2022-12-07T07:51:26;95293.03;;;7.61;100.00
14067;BME280;7108;42.684;23.350;2022-12-07T07:53:51;95278.28;;;7.55;100.00
14067;BME280;7108;42.684;23.350;2022-12-07T07:56:17;95291.28;;;7.65;100.00
14067;BME280;7108;42.684;23.350;2022-12-07T07:58:42;95302.41;;;7.67;100.00
14067;BME280;7108;42.684;23.350;2022-12-07T08:01:08;95288.47;;;7.61;100.00
14067;BME280;7108;42.684;23.350;2022-12-07T08:03:34;95297.94;;;7.71;100.00
14067;BME280;7108;42.684;23.350;2022-12-07T08:05:59;95270.25;;;7.55;100.00
14067;BME280;7108;42.684;23.350;2022-12-07T08:08:24;95275.31;;;7.56;100.00
14067;BME280;7108;42.684;23.350;2022-12-07T08:10:50;95303.19;;;7.79;100.00
14067;BME280;7108;42.684;23.350;2022-12-07T08:13:16;95287.56;;;7.69;100.00
14067;BME280;7108;42.684;23.350;2022-12-07T08:15:44;95293.28;;;7.68;100.00
14067;BME280;7108;42.684;23.350;2022-12-07T08:18:10;95290.69;;;7.71;100.00
14067;BME280;7108;42.684;23.350;2022-12-07T08:20:37;95286.22;;;7.63;100.00
14067;BME280;7108;42.684;23.350;2022-12-07T08:23:03;95280.97;;;7.67;100.00
14067;BME280;7108;42.684;23.350;2022-12-07T08:25:29;95270.25;;;7.67;100.00
14067;BME280;7108;42.684;23.350;2022-12-07T08:27:54;95268.38;;;7.67;100.00
14067;BME280;7108;42.684;23.350;2022-12-07T08:30:20;95269.19;;;7.83;100.00
14067;BME280;7108;42.684;23.350;2022-12-07T08:32:46;95290.22;;;7.93;100.00
14067;BME280;7108;42.684;23.350;2022-12-07T08:35:13;95263.75;;;7.80;100.00
14067;BME280;7108;42.684;23.350;2022-12-07T08:37:38;95252.69;;;7.69;100.00
14067;BME280;7108;42.684;23.350;2022-12-07T08:40:04;95260.16;;;7.76;100.00
14067;BME280;7108;42.684;23.350;2022-12-07T08:42:31;95281.19;;;7.85;100.00
14067;BME280;7108;42.684;23.350;2022-12-07T08:45:07;95264.41;;;7.88;100.00
14067;BME280;7108;42.684;23.350;2022-12-07T08:47:34;95273.66;;;8.03;100.00
14067;BME280;7108;42.684;23.350;2022-12-07T08:50:01;95282.00;;;8.01;100.00
14067;BME280;7108;42.684;23.350;2022-12-07T08:52:32;95262.69;;;7.96;100.00
14067;BME280;7108;42.684;23.350;2022-12-07T08:54:59;95266.59;;;7.98;100.00
14067;BME280;7108;42.684;23.350;2022-12-07T08:57:27;95257.22;;;7.92;100.00
14067;BME280;7108;42.684;23.350;2022-12-07T08:59:53;95243.47;;;7.94;100.00
14067;BME280;7108;42.684;23.350;2022-12-07T09:02:18;95256.31;;;8.00;100.00
14067;BME280;7108;42.684;23.350;2022-12-07T09:04:44;95254.06;;;8.02;100.00
14067;BME280;7108;42.684;23.350;2022-12-07T09:07:10;95254.53;;;8.04;100.00
14067;BME280;7108;42.684;23.350;2022-12-07T09:09:35;95253.06;;;8.19;100.00
14067;BME280;7108;42.684;23.350;2022-12-07T09:12:01;95235.63;;;8.01;100.00
14067;BME280;7108;42.684;23.350;2022-12-07T09:14:26;95221.44;;;8.00;100.00
14067;BME280;7108;42.684;23.350;2022-12-07T09:16:52;95254.38;;;8.13;100.00
14067;BME280;7108;42.684;23.350;2022-12-07T09:19:17;95239.75;;;8.10;100.00
14067;BME280;7108;42.684;23.350;2022-12-07T09:21:42;95223.44;;;8.15;100.00
14067;BME280;7108;42.684;23.350;2022-12-07T09:24:08;95233.13;;;8.20;100.00
14067;BME280;7108;42.684;23.350;2022-12-07T09:26:34;95238.25;;;8.25;100.00
14067;BME280;7108;42.684;23.350;2022-12-07T09:29:02;95232.81;;;8.21;100.00
14067;BME280;7108;42.684;23.350;2022-12-07T09:31:27;95257.13;;;8.28;100.00
14067;BME280;7108;42.684;23.350;2022-12-07T09:33:57;95219.69;;;8.20;100.00
14067;BME280;7108;42.684;23.350;2022-12-07T09:36:23;95232.41;;;8.35;100.00
14067;BME280;7108;42.684;23.350;2022-12-07T09:38:49;95196.25;;;8.17;100.00
14067;BME280;7108;42.684;23.350;2022-12-07T09:41:14;95182.50;;;8.06;100.00
14067;BME280;7108;42.684;23.350;2022-12-07T09:43:41;95203.81;;;8.27;100.00
14067;BME280;7108;42.684;23.350;2022-12-07T09:46:11;95209.16;;;8.27;100.00
14067;BME280;7108;42.684;23.350;2022-12-07T09:48:38;95211.25;;;8.33;100.00
14067;BME280;7108;42.684;23.350;2022-12-07T09:51:17;95181.13;;;8.24;100.00
14067;BME280;7108;42.684;23.350;2022-12-07T09:53:43;95201.59;;;8.44;100.00
14067;BME280;7108;42.684;23.350;2022-12-07T09:56:17;95200.91;;;8.47;100.00
14067;BME280;7108;42.684;23.350;2022-12-07T09:58:44;95183.91;;;8.43;100.00
14067;BME280;7108;42.684;23.350;2022-12-07T10:03:37;95201.97;;;8.73;100.00
14067;BME280;7108;42.684;23.350;2022-12-07T10:06:04;95216.34;;;8.81;100.00
14067;BME280;7108;42.684;23.350;2022-12-07T10:08:31;95203.19;;;8.91;100.00
14067;BME280;7108;42.684;23.350;2022-12-07T10:10:57;95184.56;;;8.83;100.00
14067;BME280;7108;42.684;23.350;2022-12-07T10:13:37;95188.69;;;8.96;100.00
14067;BME280;7108;42.684;23.350;2022-12-07T10:16:04;95174.31;;;9.04;100.00
14067;BME280;7108;42.684;23.350;2022-12-07T10:18:34;95181.94;;;9.02;100.00
14067;BME280;7108;42.684;23.350;2022-12-07T10:21:15;95167.81;;;8.89;100.00
14067;BME280;7108;42.684;23.350;2022-12-07T10:26:33;95172.41;;;9.04;100.00
14067;BME280;7108;42.684;23.350;2022-12-07T10:31:54;95161.03;;;9.11;100.00
14067;BME280;7108;42.684;23.350;2022-12-07T10:34:29;95104.47;;;8.88;100.00
14067;BME280;7108;42.684;23.350;2022-12-07T10:37:15;95148.97;;;9.20;100.00
14067;BME280;7108;42.684;23.350;2022-12-07T10:39:52;95140.19;;;9.23;100.00
14067;BME280;7108;42.684;23.350;2022-12-07T10:45:14;95138.22;;;9.20;100.00
14067;BME280;7108;42.684;23.350;2022-12-07T10:47:51;95138.84;;;9.13;100.00
14067;BME280;7108;42.684;23.350;2022-12-07T10:56:03;95128.69;;;9.41;100.00
14067;BME280;7108;42.684;23.350;2022-12-07T10:58:45;95135.28;;;9.44;100.00
14067;BME280;7108;42.684;23.350;2022-12-07T11:18:45;95104.78;;;9.36;100.00
14067;BME280;7108;42.684;23.350;2022-12-07T11:24:08;95096.69;;;9.36;100.00
14067;BME280;7108;42.684;23.350;2022-12-07T11:30:10;95084.13;;;9.40;100.00
14067;BME280;7108;42.684;23.350;2022-12-07T11:37:34;95069.91;;;9.40;100.00
14067;BME280;7108;42.684;23.350;2022-12-07T11:42:40;95061.69;;;9.52;100.00
14067;BME280;7108;42.684;23.350;2022-12-07T11:47:38;95069.34;;;9.69;100.00
14067;BME280;7108;42.684;23.350;2022-12-07T12:03:44;95043.97;;;9.88;100.00
14067;BME280;7108;42.684;23.350;2022-12-07T12:06:10;95042.09;;;9.92;100.00
14067;BME280;7108;42.684;23.350;2022-12-07T12:08:40;95053.81;;;10.00;100.00
14067;BME280;7108;42.684;23.350;2022-12-07T12:11:18;95042.75;;;10.05;100.00
14067;BME280;7108;42.684;23.350;2022-12-07T12:23:01;95030.22;;;9.93;100.00
14067;BME280;7108;42.684;23.350;2022-12-07T12:25:41;95030.16;;;9.90;100.00
14067;BME280;7108;42.684;23.350;2022-12-07T12:31:15;95025.34;;;9.99;100.00
14067;BME280;7108;42.684;23.350;2022-12-07T12:33:47;95003.91;;;9.83;100.00
14067;BME280;7108;42.684;23.350;2022-12-07T12:47:00;95004.72;;;9.87;100.00
14067;BME280;7108;42.684;23.350;2022-12-07T12:57:33;94998.16;;;9.85;100.00
14067;BME280;7108;42.684;23.350;2022-12-07T13:00:00;94998.63;;;9.90;100.00
14067;BME280;7108;42.684;23.350;2022-12-07T13:02:35;94986.13;;;9.98;100.00
14067;BME280;7108;42.684;23.350;2022-12-07T13:15:48;94992.78;;;10.30;100.00
14067;BME280;7108;42.684;23.350;2022-12-07T13:28:41;94998.16;;;10.52;100.00
14067;BME280;7108;42.684;23.350;2022-12-07T13:33:45;94991.34;;;10.61;100.00
14067;BME280;7108;42.684;23.350;2022-12-07T13:36:32;94975.00;;;10.47;100.00
14067;BME280;7108;42.684;23.350;2022-12-07T13:39:16;94970.38;;;10.48;100.00
14067;BME280;7108;42.684;23.350;2022-12-07T13:41:43;94989.09;;;10.63;100.00
14067;BME280;7108;42.684;23.350;2022-12-07T13:44:11;94987.16;;;10.64;100.00
14067;BME280;7108;42.684;23.350;2022-12-07T13:46:52;94938.34;;;10.40;100.00
14067;BME280;7108;42.684;23.350;2022-12-07T13:49:25;94983.38;;;10.68;100.00
14067;BME280;7108;42.684;23.350;2022-12-07T13:51:52;94989.50;;;10.65;100.00
14067;BME280;7108;42.684;23.350;2022-12-07T13:54:18;94989.53;;;10.69;100.00
14067;BME280;7108;42.684;23.350;2022-12-07T13:56:49;94966.66;;;10.56;100.00
14067;BME280;7108;42.684;23.350;2022-12-07T13:59:18;94957.84;;;10.59;100.00
14067;BME280;7108;42.684;23.350;2022-12-07T14:01:46;94946.91;;;10.48;100.00
14067;BME280;7108;42.684;23.350;2022-12-07T14:04:36;94975.25;;;10.65;100.00
14067;BME280;7108;42.684;23.350;2022-12-07T14:07:25;94974.06;;;10.62;100.00
14067;BME280;7108;42.684;23.350;2022-12-07T14:09:59;94976.06;;;10.69;100.00
14067;BME280;7108;42.684;23.350;2022-12-07T14:12:27;94986.06;;;10.68;100.00
14067;BME280;7108;42.684;23.350;2022-12-07T14:14:53;94968.22;;;10.57;100.00
14067;BME280;7108;42.684;23.350;2022-12-07T14:17:21;94955.31;;;10.44;100.00
14067;BME280;7108;42.684;23.350;2022-12-07T14:22:33;94991.03;;;10.66;100.00
14067;BME280;7108;42.684;23.350;2022-12-07T14:28:28;94981.44;;;10.43;100.00
14067;BME280;7108;42.684;23.350;2022-12-07T14:30:54;94969.22;;;10.23;100.00
14067;BME280;7108;42.684;23.350;2022-12-07T14:33:20;94990.00;;;10.23;100.00
14067;BME280;7108;42.684;23.350;2022-12-07T14:35:47;94997.53;;;10.36;100.00
14067;BME280;7108;42.684;23.350;2022-12-07T14:38:12;94969.41;;;10.11;100.00
14067;BME280;7108;42.684;23.350;2022-12-07T14:40:38;94968.47;;;10.00;100.00
14067;BME280;7108;42.684;23.350;2022-12-07T14:43:12;95001.25;;;10.06;100.00
14067;BME280;7108;42.684;23.350;2022-12-07T14:45:39;94993.72;;;9.96;100.00
14067;BME280;7108;42.684;23.350;2022-12-07T14:48:05;94973.63;;;9.90;100.00
14067;BME280;7108;42.684;23.350;2022-12-07T14:50:42;94989.06;;;9.93;100.00
14067;BME280;7108;42.684;23.350;2022-12-07T14:53:17;94994.03;;;9.91;100.00
14067;BME280;7108;42.684;23.350;2022-12-07T14:55:43;94970.66;;;9.73;100.00
14067;BME280;7108;42.684;23.350;2022-12-07T14:58:16;94992.16;;;9.73;100.00
14067;BME280;7108;42.684;23.350;2022-12-07T15:00:42;94998.09;;;9.81;100.00
14067;BME280;7108;42.684;23.350;2022-12-07T15:03:08;94985.88;;;9.65;100.00
14067;BME280;7108;42.684;23.350;2022-12-07T15:05:34;94990.28;;;9.54;100.00
14067;BME280;7108;42.684;23.350;2022-12-07T15:08:00;94990.50;;;9.46;100.00
14067;BME280;7108;42.684;23.350;2022-12-07T15:10:28;95023.28;;;9.51;100.00
14067;BME280;7108;42.684;23.350;2022-12-07T15:12:56;94973.13;;;9.21;100.00
14067;BME280;7108;42.684;23.350;2022-12-07T15:15:41;94998.31;;;9.32;100.00
14067;BME280;7108;42.684;23.350;2022-12-07T15:18:07;95005.84;;;9.26;100.00
14067;BME280;7108;42.684;23.350;2022-12-07T15:20:33;94954.38;;;8.87;100.00
14067;BME280;7108;42.684;23.350;2022-12-07T15:22:58;94907.84;;;8.64;100.00
14067;BME280;7108;42.684;23.350;2022-12-07T15:25:24;95016.13;;;9.21;100.00
14067;BME280;7108;42.684;23.350;2022-12-07T15:27:49;95031.97;;;9.26;100.00
14067;BME280;7108;42.684;23.350;2022-12-07T15:30:15;95005.66;;;9.16;100.00
14067;BME280;7108;42.684;23.350;2022-12-07T15:32:40;95011.31;;;9.11;100.00
14067;BME280;7108;42.684;23.350;2022-12-07T15:35:06;95015.34;;;9.02;100.00
14067;BME280;7108;42.684;23.350;2022-12-07T15:37:31;94998.13;;;8.87;100.00
14067;BME280;7108;42.684;23.350;2022-12-07T15:39:57;94961.63;;;8.48;100.00
14067;BME280;7108;42.684;23.350;2022-12-07T15:42:22;94955.81;;;8.47;100.00
14067;BME280;7108;42.684;23.350;2022-12-07T15:44:48;95007.88;;;8.76;100.00
14067;BME280;7108;42.684;23.350;2022-12-07T15:47:29;94989.28;;;8.68;100.00
14067;BME280;7108;42.684;23.350;2022-12-07T15:49:55;95010.13;;;8.74;100.00
14067;BME280;7108;42.684;23.350;2022-12-07T15:52:20;95009.47;;;8.62;100.00
14067;BME280;7108;42.684;23.350;2022-12-07T15:54:46;95018.81;;;8.68;100.00
14067;BME280;7108;42.684;23.350;2022-12-07T15:57:13;95038.13;;;8.73;100.00
14067;BME280;7108;42.684;23.350;2022-12-07T15:59:38;95041.34;;;8.79;100.00